sensor_id;sensor_type;location;lat;lon;timestamp;pressure;altitude;pressure_sealevel;temperature;humidity
16094;BME280;8151;47.824;12.092;2022-09-21T00:01:38;97013.00;;;10.66;78.24
16094;BME280;8151;47.824;12.092;2022-09-21T00:04:07;97011.19;;;10.67;78.73
16094;BME280;8151;47.824;12.092;2022-09-21T00:06:36;97012.50;;;10.62;78.39
16094;BME280;8151;47.824;12.092;2022-09-21T00:09:04;97007.63;;;10.58;78.83
16094;BME280;8151;47.824;12.092;2022-09-21T00:11:34;97012.94;;;10.58;78.88
16094;BME280;8151;47.824;12.092;2022-09-21T00:14:05;97012.94;;;10.58;79.13
16094;BME280;8151;47.824;12.092;2022-09-21T00:16:35;97015.56;;;10.58;79.11
16094;BME280;8151;47.824;12.092;2022-09-21T00:19:04;97012.09;;;10.57;79.16
16094;BME280;8151;47.824;12.092;2022-09-21T00:21:34;97013.94;;;10.57;78.96
16094;BME280;8151;47.824;12.092;2022-09-21T00:24:04;97013.94;;;10.57;79.34
16094;BME280;8151;47.824;12.092;2022-09-21T00:26:33;97015.03;;;10.54;79.41
16094;BME280;8151;47.824;12.092;2022-09-21T00:29:02;97013.25;;;10.55;79.00
16094;BME280;8151;47.824;12.092;2022-09-21T00:31:31;97019.50;;;10.54;79.48
16094;BME280;8151;47.824;12.092;2022-09-21T00:34:01;97019.56;;;10.62;79.21
16094;BME280;8151;47.824;12.092;2022-09-21T00:36:33;97020.94;;;10.66;78.95
16094;BME280;8151;47.824;12.092;2022-09-21T00:39:02;97020.09;;;10.66;78.99
16094;BME280;8151;47.824;12.092;2022-09-21T00:41:32;97016.63;;;10.65;79.27
16094;BME280;8151;47.824;12.092;2022-09-21T00:44:27;97015.81;;;10.64;79.09
16094;BME280;8151;47.824;12.092;2022-09-21T00:47:00;97020.56;;;10.61;79.04
16094;BME280;8151;47.824;12.092;2022-09-21T00:49:30;97020.72;;;10.59;78.89
16094;BME280;8151;47.824;12.092;2022-09-21T00:52:00;97016.34;;;10.50;79.20
16094;BME280;8151;47.824;12.092;2022-09-21T00:54:35;97018.91;;;10.42;79.37
16094;BME280;8151;47.824;12.092;2022-09-21T00:57:05;97023.66;;;10.38;79.67
16094;BME280;8151;47.824;12.092;2022-09-21T00:59:36;97020.34;;;10.36;79.34
16094;BME280;8151;47.824;12.092;2022-09-21T01:02:06;97024.94;;;10.34;79.66
16094;BME280;8151;47.824;12.092;2022-09-21T01:04:36;97025.63;;;10.36;79.40
16094;BME280;8151;47.824;12.092;2022-09-21T01:07:09;97020.53;;;10.25;79.72
16094;BME280;8151;47.824;12.092;2022-09-21T01:09:39;97014.69;;;10.21;80.02
16094;BME280;8151;47.824;12.092;2022-09-21T01:12:23;97016.91;;;10.26;80.12
16094;BME280;8151;47.824;12.092;2022-09-21T01:15:03;97011.72;;;10.34;79.37
16094;BME280;8151;47.824;12.092;2022-09-21T01:17:42;97013.41;;;10.35;79.41
16094;BME280;8151;47.824;12.092;2022-09-21T01:20:54;97018.56;;;10.27;79.88
16094;BME280;8151;47.824;12.092;2022-09-21T01:23:41;97018.94;;;10.14;79.56
16094;BME280;8151;47.824;12.092;2022-09-21T01:26:20;97012.28;;;10.10;79.34
16094;BME280;8151;47.824;12.092;2022-09-21T01:29:06;97017.72;;;10.09;79.77
16094;BME280;8151;47.824;12.092;2022-09-21T01:31:43;97014.75;;;10.12;80.22
16094;BME280;8151;47.824;12.092;2022-09-21T01:34:27;97015.16;;;10.17;79.67
16094;BME280;8151;47.824;12.092;2022-09-21T01:37:01;97018.03;;;10.23;79.63
16094;BME280;8151;47.824;12.092;2022-09-21T01:39:33;97014.94;;;10.28;79.48
16094;BME280;8151;47.824;12.092;2022-09-21T01:42:05;97014.66;;;10.31;79.10
16094;BME280;8151;47.824;12.092;2022-09-21T01:44:38;97017.59;;;10.28;79.26
16094;BME280;8151;47.824;12.092;2022-09-21T01:47:10;97015.56;;;10.22;79.19
16094;BME280;8151;47.824;12.092;2022-09-21T01:49:43;97015.63;;;10.12;79.93
16094;BME280;8151;47.824;12.092;2022-09-21T01:52:16;97016.44;;;10.13;79.76
16094;BME280;8151;47.824;12.092;2022-09-21T01:54:49;97008.50;;;10.13;79.85
16094;BME280;8151;47.824;12.092;2022-09-21T01:59:56;97007.22;;;10.17;79.49
16094;BME280;8151;47.824;12.092;2022-09-21T02:02:30;97007.50;;;10.14;79.33
16094;BME280;8151;47.824;12.092;2022-09-21T02:05:03;97008.78;;;10.10;79.34
16094;BME280;8151;47.824;12.092;2022-09-21T02:07:32;97017.88;;;10.07;79.25
16094;BME280;8151;47.824;12.092;2022-09-21T02:10:02;97014.25;;;10.08;79.54
16094;BME280;8151;47.824;12.092;2022-09-21T02:12:31;97017.03;;;10.07;79.21
16094;BME280;8151;47.824;12.092;2022-09-21T02:15:02;97019.00;;;10.04;79.31
16094;BME280;8151;47.824;12.092;2022-09-21T02:17:35;97014.06;;;9.92;79.26
16094;BME280;8151;47.824;12.092;2022-09-21T02:20:14;97014.13;;;9.82;79.39
16094;BME280;8151;47.824;12.092;2022-09-21T02:22:53;97013.94;;;9.65;79.27
16094;BME280;8151;47.824;12.092;2022-09-21T02:25:30;97010.47;;;9.55;80.37
16094;BME280;8151;47.824;12.092;2022-09-21T02:28:06;97009.56;;;9.46;79.92
16094;BME280;8151;47.824;12.092;2022-09-21T02:30:38;97009.47;;;9.38;80.49
16094;BME280;8151;47.824;12.092;2022-09-21T02:33:11;97017.66;;;9.35;80.13
16094;BME280;8151;47.824;12.092;2022-09-21T02:35:48;97010.19;;;9.31;80.18
16094;BME280;8151;47.824;12.092;2022-09-21T02:38:21;97013.53;;;9.23;80.56
16094;BME280;8151;47.824;12.092;2022-09-21T02:40:57;97010.50;;;9.18;80.03
16094;BME280;8151;47.824;12.092;2022-09-21T02:43:33;97006.88;;;9.09;80.64
16094;BME280;8151;47.824;12.092;2022-09-21T02:46:08;97010.41;;;9.00;80.41
16094;BME280;8151;47.824;12.092;2022-09-21T02:48:40;97012.06;;;8.91;80.53
16094;BME280;8151;47.824;12.092;2022-09-21T02:51:14;97011.91;;;9.02;80.32
16094;BME280;8151;47.824;12.092;2022-09-21T02:53:45;97015.22;;;9.14;80.22
16094;BME280;8151;47.824;12.092;2022-09-21T02:56:16;97013.00;;;9.19;79.81
16094;BME280;8151;47.824;12.092;2022-09-21T02:58:48;97009.09;;;9.23;79.71
16094;BME280;8151;47.824;12.092;2022-09-21T03:01:20;97011.84;;;9.22;79.03
16094;BME280;8151;47.824;12.092;2022-09-21T03:03:49;97015.22;;;9.14;79.73
16094;BME280;8151;47.824;12.092;2022-09-21T03:06:18;97013.84;;;9.10;79.78
16094;BME280;8151;47.824;12.092;2022-09-21T03:08:46;97021.22;;;8.97;79.40
16094;BME280;8151;47.824;12.092;2022-09-21T03:11:15;97022.50;;;8.83;79.89
16094;BME280;8151;47.824;12.092;2022-09-21T03:13:44;97023.91;;;8.77;80.20
16094;BME280;8151;47.824;12.092;2022-09-21T03:16:13;97022.78;;;8.70;80.16
16094;BME280;8151;47.824;12.092;2022-09-21T03:18:44;97031.56;;;8.61;80.47
16094;BME280;8151;47.824;12.092;2022-09-21T03:21:12;97027.81;;;8.63;80.58
16094;BME280;8151;47.824;12.092;2022-09-21T03:23:41;97038.22;;;8.75;80.54
16094;BME280;8151;47.824;12.092;2022-09-21T03:26:09;97041.13;;;8.81;79.80
16094;BME280;8151;47.824;12.092;2022-09-21T03:28:38;97036.66;;;8.82;79.73
16094;BME280;8151;47.824;12.092;2022-09-21T03:31:06;97035.84;;;8.81;79.78
16094;BME280;8151;47.824;12.092;2022-09-21T03:33:35;97040.53;;;8.87;79.29
16094;BME280;8151;47.824;12.092;2022-09-21T03:36:05;97037.19;;;8.95;79.36
16094;BME280;8151;47.824;12.092;2022-09-21T03:38:33;97029.97;;;8.97;79.07
16094;BME280;8151;47.824;12.092;2022-09-21T03:41:02;97043.34;;;8.96;79.02
16094;BME280;8151;47.824;12.092;2022-09-21T03:43:31;97036.66;;;8.92;79.33
16094;BME280;8151;47.824;12.092;2022-09-21T03:45:59;97037.91;;;8.87;79.40
16094;BME280;8151;47.824;12.092;2022-09-21T03:48:27;97040.16;;;8.82;79.44
16094;BME280;8151;47.824;12.092;2022-09-21T03:50:57;97041.53;;;8.77;79.32
16094;BME280;8151;47.824;12.092;2022-09-21T03:53:26;97051.53;;;8.73;79.99
16094;BME280;8151;47.824;12.092;2022-09-21T03:55:56;97051.13;;;8.78;79.83
16094;BME280;8151;47.824;12.092;2022-09-21T03:58:25;97052.34;;;8.83;79.76
16094;BME280;8151;47.824;12.092;2022-09-21T04:00:53;97054.44;;;8.90;79.99
16094;BME280;8151;47.824;12.092;2022-09-21T04:03:21;97057.34;;;8.96;79.45
16094;BME280;8151;47.824;12.092;2022-09-21T04:05:50;97057.63;;;9.03;79.24
16094;BME280;8151;47.824;12.092;2022-09-21T04:08:18;97060.69;;;9.08;79.60
16094;BME280;8151;47.824;12.092;2022-09-21T04:10:48;97053.84;;;9.15;79.45
16094;BME280;8151;47.824;12.092;2022-09-21T04:13:16;97054.38;;;9.19;79.37
16094;BME280;8151;47.824;12.092;2022-09-21T04:15:45;97055.22;;;9.19;78.85
16094;BME280;8151;47.824;12.092;2022-09-21T04:18:13;97056.34;;;9.17;79.30
16094;BME280;8151;47.824;12.092;2022-09-21T04:20:41;97050.22;;;9.16;78.90
16094;BME280;8151;47.824;12.092;2022-09-21T04:23:10;97051.91;;;9.17;79.58
16094;BME280;8151;47.824;12.092;2022-09-21T04:25:38;97052.28;;;9.22;78.90
16094;BME280;8151;47.824;12.092;2022-09-21T04:28:09;97052.28;;;9.22;79.10
16094;BME280;8151;47.824;12.092;2022-09-21T04:30:37;97056.06;;;9.20;79.39
16094;BME280;8151;47.824;12.092;2022-09-21T04:33:06;97064.25;;;9.17;78.83
16094;BME280;8151;47.824;12.092;2022-09-21T04:35:34;97058.03;;;9.08;79.07
16094;BME280;8151;47.824;12.092;2022-09-21T04:38:06;97057.22;;;8.98;79.63
16094;BME280;8151;47.824;12.092;2022-09-21T04:40:36;97061.13;;;8.94;79.95
16094;BME280;8151;47.824;12.092;2022-09-21T04:43:16;97058.63;;;8.92;79.51
16094;BME280;8151;47.824;12.092;2022-09-21T04:45:49;97052.34;;;8.93;79.63
16094;BME280;8151;47.824;12.092;2022-09-21T04:48:17;97057.75;;;8.92;79.56
16094;BME280;8151;47.824;12.092;2022-09-21T04:50:47;97058.63;;;8.92;79.74
16094;BME280;8151;47.824;12.092;2022-09-21T04:53:16;97056.69;;;8.84;79.77
16094;BME280;8151;47.824;12.092;2022-09-21T04:55:45;97058.34;;;8.76;80.00
16094;BME280;8151;47.824;12.092;2022-09-21T04:58:13;97063.47;;;8.67;80.07
16094;BME280;8151;47.824;12.092;2022-09-21T05:00:43;97055.56;;;8.58;79.98
16094;BME280;8151;47.824;12.092;2022-09-21T05:03:11;97056.69;;;8.55;79.95
16094;BME280;8151;47.824;12.092;2022-09-21T05:05:45;97062.34;;;8.51;80.32
16094;BME280;8151;47.824;12.092;2022-09-21T05:08:14;97063.06;;;8.43;80.33
16094;BME280;8151;47.824;12.092;2022-09-21T05:10:43;97065.63;;;8.33;80.18
16094;BME280;8151;47.824;12.092;2022-09-21T05:13:10;97065.38;;;8.26;80.56
16094;BME280;8151;47.824;12.092;2022-09-21T05:15:47;97067.03;;;8.27;80.77
16094;BME280;8151;47.824;12.092;2022-09-21T05:18:15;97073.84;;;8.30;80.69
16094;BME280;8151;47.824;12.092;2022-09-21T05:20:44;97072.84;;;8.31;80.46
16094;BME280;8151;47.824;12.092;2022-09-21T05:23:12;97067.19;;;8.36;80.62
16094;BME280;8151;47.824;12.092;2022-09-21T05:25:42;97067.72;;;8.39;80.74
16094;BME280;8151;47.824;12.092;2022-09-21T05:28:11;97075.28;;;8.44;80.63
16094;BME280;8151;47.824;12.092;2022-09-21T05:30:40;97075.50;;;8.41;80.10
16094;BME280;8151;47.824;12.092;2022-09-21T05:33:32;97074.41;;;8.34;80.72
16094;BME280;8151;47.824;12.092;2022-09-21T05:36:10;97078.69;;;8.35;80.94
16094;BME280;8151;47.824;12.092;2022-09-21T05:38:44;97074.69;;;8.40;80.67
16094;BME280;8151;47.824;12.092;2022-09-21T05:41:13;97084.31;;;8.51;80.78
16094;BME280;8151;47.824;12.092;2022-09-21T05:43:42;97080.69;;;8.62;80.24
16094;BME280;8151;47.824;12.092;2022-09-21T05:46:17;97081.94;;;8.67;80.26
16094;BME280;8151;47.824;12.092;2022-09-21T05:48:53;97089.16;;;8.75;80.41
16094;BME280;8151;47.824;12.092;2022-09-21T05:51:28;97086.78;;;8.82;80.06
16094;BME280;8151;47.824;12.092;2022-09-21T05:54:09;97086.41;;;8.77;80.15
16094;BME280;8151;47.824;12.092;2022-09-21T05:56:46;97089.59;;;8.71;80.28
16094;BME280;8151;47.824;12.092;2022-09-21T05:59:31;97092.06;;;8.72;80.50
16094;BME280;8151;47.824;12.092;2022-09-21T06:02:09;97092.63;;;8.76;80.35
16094;BME280;8151;47.824;12.092;2022-09-21T06:04:44;97097.50;;;8.71;80.54
16094;BME280;8151;47.824;12.092;2022-09-21T06:07:14;97098.47;;;8.60;80.34
16094;BME280;8151;47.824;12.092;2022-09-21T06:09:43;97095.81;;;8.60;80.66
16094;BME280;8151;47.824;12.092;2022-09-21T06:12:12;97100.41;;;8.58;80.88
16094;BME280;8151;47.824;12.092;2022-09-21T06:14:40;97096.25;;;8.55;81.00
16094;BME280;8151;47.824;12.092;2022-09-21T06:17:10;97103.88;;;8.58;80.95
16094;BME280;8151;47.824;12.092;2022-09-21T06:19:39;97103.06;;;8.67;81.30
16094;BME280;8151;47.824;12.092;2022-09-21T06:22:09;97098.59;;;8.78;80.88
16094;BME280;8151;47.824;12.092;2022-09-21T06:24:37;97107.91;;;8.92;80.81
16094;BME280;8151;47.824;12.092;2022-09-21T06:27:05;97104.72;;;8.98;80.09
16094;BME280;8151;47.824;12.092;2022-09-21T06:29:34;97111.09;;;9.05;80.59
16094;BME280;8151;47.824;12.092;2022-09-21T06:32:03;97103.59;;;9.10;80.38
16094;BME280;8151;47.824;12.092;2022-09-21T06:34:32;97111.41;;;9.02;80.26
16094;BME280;8151;47.824;12.092;2022-09-21T06:37:00;97108.75;;;9.02;80.53
16094;BME280;8151;47.824;12.092;2022-09-21T06:39:30;97100.84;;;9.02;80.95
16094;BME280;8151;47.824;12.092;2022-09-21T06:41:58;97106.94;;;9.02;80.50
16094;BME280;8151;47.824;12.092;2022-09-21T06:44:28;97110.28;;;9.04;80.88
16094;BME280;8151;47.824;12.092;2022-09-21T06:46:57;97109.44;;;9.14;80.79
16094;BME280;8151;47.824;12.092;2022-09-21T06:49:25;97113.31;;;9.19;80.26
16094;BME280;8151;47.824;12.092;2022-09-21T06:51:54;97113.88;;;9.23;80.52
16094;BME280;8151;47.824;12.092;2022-09-21T06:54:23;97117.19;;;9.35;80.79
16094;BME280;8151;47.824;12.092;2022-09-21T06:56:53;97114.94;;;9.40;80.12
16094;BME280;8151;47.824;12.092;2022-09-21T06:59:26;97114.41;;;9.46;80.45
16094;BME280;8151;47.824;12.092;2022-09-21T07:01:54;97115.34;;;9.55;80.14
16094;BME280;8151;47.824;12.092;2022-09-21T07:04:24;97117.25;;;9.62;80.10
16094;BME280;8151;47.824;12.092;2022-09-21T07:06:54;97114.34;;;9.65;80.12
16094;BME280;8151;47.824;12.092;2022-09-21T07:09:23;97117.50;;;9.69;80.54
16094;BME280;8151;47.824;12.092;2022-09-21T07:12:13;97122.38;;;9.74;80.10
16094;BME280;8151;47.824;12.092;2022-09-21T07:14:42;97121.50;;;9.83;79.77
16094;BME280;8151;47.824;12.092;2022-09-21T07:17:12;97123.72;;;9.88;80.21
16094;BME280;8151;47.824;12.092;2022-09-21T07:19:42;97126.75;;;9.93;80.02
16094;BME280;8151;47.824;12.092;2022-09-21T07:22:10;97133.97;;;10.00;79.96
16094;BME280;8151;47.824;12.092;2022-09-21T07:24:39;97134.22;;;10.07;79.80
16094;BME280;8151;47.824;12.092;2022-09-21T07:27:07;97135.56;;;10.11;79.67
16094;BME280;8151;47.824;12.092;2022-09-21T07:29:37;97130.44;;;10.10;79.79
16094;BME280;8151;47.824;12.092;2022-09-21T07:32:05;97129.16;;;10.14;79.97
16094;BME280;8151;47.824;12.092;2022-09-21T07:34:34;97133.88;;;10.20;79.33
16094;BME280;8151;47.824;12.092;2022-09-21T07:37:04;97123.66;;;10.25;79.15
16094;BME280;8151;47.824;12.092;2022-09-21T07:39:32;97126.75;;;10.30;79.40
16094;BME280;8151;47.824;12.092;2022-09-21T07:42:01;97128.25;;;10.33;79.83
16094;BME280;8151;47.824;12.092;2022-09-21T07:44:29;97125.47;;;10.34;79.41
16094;BME280;8151;47.824;12.092;2022-09-21T07:46:59;97134.09;;;10.36;79.04
16094;BME280;8151;47.824;12.092;2022-09-21T07:49:29;97127.66;;;10.39;79.38
16094;BME280;8151;47.824;12.092;2022-09-21T07:51:57;97127.91;;;10.46;79.18
16094;BME280;8151;47.824;12.092;2022-09-21T07:54:31;97124.81;;;10.50;78.62
16094;BME280;8151;47.824;12.092;2022-09-21T07:57:00;97125.06;;;10.57;78.51
16094;BME280;8151;47.824;12.092;2022-09-21T07:59:46;97130.56;;;10.63;78.26
16094;BME280;8151;47.824;12.092;2022-09-21T08:02:16;97134.44;;;10.69;78.18
16094;BME280;8151;47.824;12.092;2022-09-21T08:04:44;97136.06;;;10.80;78.05
16094;BME280;8151;47.824;12.092;2022-09-21T08:07:13;97137.63;;;10.91;77.85
16094;BME280;8151;47.824;12.092;2022-09-21T08:09:41;97135.03;;;10.99;78.31
16094;BME280;8151;47.824;12.092;2022-09-21T08:12:10;97140.59;;;11.06;77.88
16094;BME280;8151;47.824;12.092;2022-09-21T08:14:38;97138.47;;;11.09;77.88
16094;BME280;8151;47.824;12.092;2022-09-21T08:17:07;97137.19;;;11.13;77.83
16094;BME280;8151;47.824;12.092;2022-09-21T08:19:37;97134.88;;;11.18;77.71
16094;BME280;8151;47.824;12.092;2022-09-21T08:22:05;97133.97;;;11.28;77.90
16094;BME280;8151;47.824;12.092;2022-09-21T08:24:34;97143.94;;;11.34;77.34
16094;BME280;8151;47.824;12.092;2022-09-21T08:27:03;97133.72;;;11.39;77.57
16094;BME280;8151;47.824;12.092;2022-09-21T08:29:32;97139.41;;;11.44;77.64
16094;BME280;8151;47.824;12.092;2022-09-21T08:32:02;97135.81;;;11.53;77.46
16094;BME280;8151;47.824;12.092;2022-09-21T08:34:31;97144.50;;;11.63;77.15
16094;BME280;8151;47.824;12.092;2022-09-21T08:37:00;97124.03;;;11.74;77.06
16094;BME280;8151;47.824;12.092;2022-09-21T08:39:29;97131.03;;;11.83;77.33
16094;BME280;8151;47.824;12.092;2022-09-21T08:42:11;97130.97;;;11.93;77.24
16094;BME280;8151;47.824;12.092;2022-09-21T08:44:45;97129.16;;;12.01;77.10
16094;BME280;8151;47.824;12.092;2022-09-21T08:47:18;97122.09;;;12.10;76.82
16094;BME280;8151;47.824;12.092;2022-09-21T08:49:51;97123.94;;;12.18;76.69
16094;BME280;8151;47.824;12.092;2022-09-21T08:52:22;97126.78;;;12.25;76.77
16094;BME280;8151;47.824;12.092;2022-09-21T08:54:54;97120.00;;;12.30;76.87
16094;BME280;8151;47.824;12.092;2022-09-21T08:57:27;97116.25;;;12.41;76.80
16094;BME280;8151;47.824;12.092;2022-09-21T08:59:58;97122.09;;;12.53;76.98
16094;BME280;8151;47.824;12.092;2022-09-21T09:02:51;97118.13;;;12.65;76.70
16094;BME280;8151;47.824;12.092;2022-09-21T09:05:38;97118.13;;;12.65;76.56
16094;BME280;8151;47.824;12.092;2022-09-21T09:08:27;97120.13;;;12.71;76.51
16094;BME280;8151;47.824;12.092;2022-09-21T09:11:08;97121.16;;;12.87;76.25
16094;BME280;8151;47.824;12.092;2022-09-21T09:13:56;97121.84;;;13.05;76.10
16094;BME280;8151;47.824;12.092;2022-09-21T09:16:35;97120.19;;;13.20;75.76
16094;BME280;8151;47.824;12.092;2022-09-21T09:19:15;97123.53;;;13.39;75.34
16094;BME280;8151;47.824;12.092;2022-09-21T09:21:45;97120.88;;;13.55;74.87
16094;BME280;8151;47.824;12.092;2022-09-21T09:24:18;97117.50;;;13.70;74.37
16094;BME280;8151;47.824;12.092;2022-09-21T09:26:53;97119.47;;;13.84;73.81
16094;BME280;8151;47.824;12.092;2022-09-21T09:29:28;97123.44;;;13.96;73.71
16094;BME280;8151;47.824;12.092;2022-09-21T09:32:00;97126.22;;;14.11;73.26
16094;BME280;8151;47.824;12.092;2022-09-21T09:34:31;97125.66;;;14.24;72.80
16094;BME280;8151;47.824;12.092;2022-09-21T09:37:09;97107.63;;;14.34;72.19
16094;BME280;8151;47.824;12.092;2022-09-21T09:39:40;97109.09;;;14.45;72.02
16094;BME280;8151;47.824;12.092;2022-09-21T09:42:23;97107.22;;;14.54;71.65
16094;BME280;8151;47.824;12.092;2022-09-21T09:45:06;97110.03;;;14.61;71.98
16094;BME280;8151;47.824;12.092;2022-09-21T09:47:49;97112.53;;;14.62;71.97
16094;BME280;8151;47.824;12.092;2022-09-21T09:50:24;97111.69;;;14.62;71.68
16094;BME280;8151;47.824;12.092;2022-09-21T09:52:58;97106.72;;;14.59;71.55
16094;BME280;8151;47.824;12.092;2022-09-21T09:55:37;97109.03;;;14.53;71.36
16094;BME280;8151;47.824;12.092;2022-09-21T09:58:15;97095.91;;;14.52;71.28
16094;BME280;8151;47.824;12.092;2022-09-21T10:00:44;97094.41;;;14.57;71.05
16094;BME280;8151;47.824;12.092;2022-09-21T10:03:15;97091.06;;;14.64;70.34
16094;BME280;8151;47.824;12.092;2022-09-21T10:05:45;97089.63;;;14.76;70.22
16094;BME280;8151;47.824;12.092;2022-09-21T10:08:39;97086.69;;;14.94;69.12
16094;BME280;8151;47.824;12.092;2022-09-21T10:11:12;97087.72;;;15.08;69.45
16094;BME280;8151;47.824;12.092;2022-09-21T10:13:42;97084.81;;;15.18;68.95
16094;BME280;8151;47.824;12.092;2022-09-21T10:16:12;97091.75;;;15.27;68.70
16094;BME280;8151;47.824;12.092;2022-09-21T10:18:45;97080.34;;;15.18;68.23
16094;BME280;8151;47.824;12.092;2022-09-21T10:21:18;97084.91;;;15.09;67.92
16094;BME280;8151;47.824;12.092;2022-09-21T10:23:51;97079.00;;;14.99;68.05
16094;BME280;8151;47.824;12.092;2022-09-21T10:26:22;97065.66;;;14.99;68.29
16094;BME280;8151;47.824;12.092;2022-09-21T10:28:56;97066.63;;;15.06;67.98
16094;BME280;8151;47.824;12.092;2022-09-21T10:31:26;97057.81;;;15.21;68.01
16094;BME280;8151;47.824;12.092;2022-09-21T10:34:06;97066.69;;;15.36;67.19
16094;BME280;8151;47.824;12.092;2022-09-21T10:36:40;97062.56;;;15.48;67.55
16094;BME280;8151;47.824;12.092;2022-09-21T10:39:24;97058.78;;;15.58;66.70
16094;BME280;8151;47.824;12.092;2022-09-21T10:42:05;97049.41;;;15.62;66.38
16094;BME280;8151;47.824;12.092;2022-09-21T10:44:39;97046.38;;;15.65;66.08
16094;BME280;8151;47.824;12.092;2022-09-21T10:47:17;97049.53;;;15.68;65.52
16094;BME280;8151;47.824;12.092;2022-09-21T10:49:48;97054.16;;;15.74;65.57
16094;BME280;8151;47.824;12.092;2022-09-21T10:52:19;97050.75;;;15.81;65.40
16094;BME280;8151;47.824;12.092;2022-09-21T10:54:50;97045.41;;;15.81;65.55
16094;BME280;8151;47.824;12.092;2022-09-21T10:57:23;97043.03;;;15.86;65.45
16094;BME280;8151;47.824;12.092;2022-09-21T10:59:52;97049.25;;;15.93;65.40
16094;BME280;8151;47.824;12.092;2022-09-21T11:02:27;97041.00;;;15.88;65.06
16094;BME280;8151;47.824;12.092;2022-09-21T11:05:06;97038.97;;;15.90;64.73
16094;BME280;8151;47.824;12.092;2022-09-21T11:07:43;97043.38;;;15.98;64.39
16094;BME280;8151;47.824;12.092;2022-09-21T11:10:18;97039.78;;;16.05;63.87
16094;BME280;8151;47.824;12.092;2022-09-21T11:12:59;97035.97;;;16.14;63.17
16094;BME280;8151;47.824;12.092;2022-09-21T11:15:39;97033.84;;;16.25;63.19
16094;BME280;8151;47.824;12.092;2022-09-21T11:18:15;97030.50;;;16.38;62.97
16094;BME280;8151;47.824;12.092;2022-09-21T11:20:48;97024.66;;;16.49;62.80
16094;BME280;8151;47.824;12.092;2022-09-21T11:23:32;97026.06;;;16.66;62.07
16094;BME280;8151;47.824;12.092;2022-09-21T11:26:09;97024.13;;;16.75;62.40
16094;BME280;8151;47.824;12.092;2022-09-21T11:28:45;97020.53;;;16.83;62.30
16094;BME280;8151;47.824;12.092;2022-09-21T11:34:32;97020.28;;;16.63;62.41
16094;BME280;8151;47.824;12.092;2022-09-21T11:37:16;97016.78;;;16.62;62.43
16094;BME280;8151;47.824;12.092;2022-09-21T11:40:13;97012.22;;;16.78;61.64
16094;BME280;8151;47.824;12.092;2022-09-21T11:42:51;97005.78;;;16.93;61.81
16094;BME280;8151;47.824;12.092;2022-09-21T11:45:35;97002.16;;;17.01;60.63
16094;BME280;8151;47.824;12.092;2022-09-21T11:48:15;97000.56;;;17.07;60.16
16094;BME280;8151;47.824;12.092;2022-09-21T11:50:57;96998.16;;;17.12;60.15
16094;BME280;8151;47.824;12.092;2022-09-21T11:53:39;96997.28;;;17.11;59.89
16094;BME280;8151;47.824;12.092;2022-09-21T11:56:23;96986.66;;;17.18;59.63
16094;BME280;8151;47.824;12.092;2022-09-21T11:59:00;96981.97;;;17.27;59.83
16094;BME280;8151;47.824;12.092;2022-09-21T12:01:43;96981.06;;;17.41;59.42
16094;BME280;8151;47.824;12.092;2022-09-21T12:04:36;96977.44;;;17.56;58.82
16094;BME280;8151;47.824;12.092;2022-09-21T12:07:24;96983.47;;;17.71;58.70
16094;BME280;8151;47.824;12.092;2022-09-21T12:10:29;96980.91;;;17.84;58.27
16094;BME280;8151;47.824;12.092;2022-09-21T12:13:07;96977.03;;;17.94;58.79
16094;BME280;8151;47.824;12.092;2022-09-21T12:15:44;96972.13;;;18.04;58.34
16094;BME280;8151;47.824;12.092;2022-09-21T12:18:23;96974.03;;;18.17;57.95
16094;BME280;8151;47.824;12.092;2022-09-21T12:20:59;96969.06;;;18.20;57.97
16094;BME280;8151;47.824;12.092;2022-09-21T12:23:37;96974.47;;;18.27;57.51
16094;BME280;8151;47.824;12.092;2022-09-21T12:26:09;96969.75;;;18.29;57.57
16094;BME280;8151;47.824;12.092;2022-09-21T12:28:41;96965.19;;;18.29;56.99
16094;BME280;8151;47.824;12.092;2022-09-21T12:31:14;96959.66;;;18.31;56.67
16094;BME280;8151;47.824;12.092;2022-09-21T12:33:50;96967.06;;;18.36;56.32
16094;BME280;8151;47.824;12.092;2022-09-21T12:36:24;96960.50;;;18.45;56.14
16094;BME280;8151;47.824;12.092;2022-09-21T12:39:02;96954.31;;;18.51;55.75
16094;BME280;8151;47.824;12.092;2022-09-21T12:41:36;96958.66;;;18.52;55.67
16094;BME280;8151;47.824;12.092;2022-09-21T12:44:15;96953.09;;;18.54;55.28
16094;BME280;8151;47.824;12.092;2022-09-21T12:46:49;96948.97;;;18.58;55.18
16094;BME280;8151;47.824;12.092;2022-09-21T12:49:25;96951.03;;;18.62;54.89
16094;BME280;8151;47.824;12.092;2022-09-21T12:51:59;96941.97;;;18.63;55.08
16094;BME280;8151;47.824;12.092;2022-09-21T12:54:39;96954.97;;;18.60;54.47
16094;BME280;8151;47.824;12.092;2022-09-21T12:57:19;96951.44;;;18.53;54.38
16094;BME280;8151;47.824;12.092;2022-09-21T13:00:17;96948.53;;;18.47;54.67
16094;BME280;8151;47.824;12.092;2022-09-21T13:02:50;96955.13;;;18.45;54.18
16094;BME280;8151;47.824;12.092;2022-09-21T13:05:35;96948.97;;;18.44;53.03
16094;BME280;8151;47.824;12.092;2022-09-21T13:08:10;96943.81;;;18.49;53.68
16094;BME280;8151;47.824;12.092;2022-09-21T13:10:45;96950.63;;;18.52;53.21
16094;BME280;8151;47.824;12.092;2022-09-21T13:13:25;96944.84;;;18.48;53.11
16094;BME280;8151;47.824;12.092;2022-09-21T13:15:58;96942.38;;;18.54;52.98
16094;BME280;8151;47.824;12.092;2022-09-21T13:18:29;96942.19;;;18.62;52.81
16094;BME280;8151;47.824;12.092;2022-09-21T13:21:16;96937.84;;;18.67;51.77
16094;BME280;8151;47.824;12.092;2022-09-21T13:23:51;96942.78;;;18.64;52.09
16094;BME280;8151;47.824;12.092;2022-09-21T13:26:30;96944.00;;;18.55;51.46
16094;BME280;8151;47.824;12.092;2022-09-21T13:31:54;96939.88;;;18.45;51.46
16094;BME280;8151;47.824;12.092;2022-09-21T13:34:29;96934.31;;;18.47;51.29
16094;BME280;8151;47.824;12.092;2022-09-21T13:37:32;96930.63;;;18.55;50.28
16094;BME280;8151;47.824;12.092;2022-09-21T13:40:32;96928.75;;;18.55;50.40
16094;BME280;8151;47.824;12.092;2022-09-21T13:43:20;96928.97;;;18.60;50.28
16094;BME280;8151;47.824;12.092;2022-09-21T13:45:55;96924.84;;;18.64;50.53
16094;BME280;8151;47.824;12.092;2022-09-21T13:48:26;96924.22;;;18.62;50.58